createdAt,value
2022-11-25T00:00:10.284Z,1023.81
2022-11-25T00:02:43.123Z,1023.86
2022-11-25T00:05:10.171Z,1024.04
2022-11-25T00:07:37.381Z,1024.10
2022-11-25T00:10:08.302Z,1024.28
2022-11-25T00:12:35.052Z,1024.19
2022-11-25T00:15:02.021Z,1024.20
2022-11-25T00:17:28.891Z,1024.26
2022-11-25T00:19:57.160Z,1024.19
2022-11-25T00:22:26.090Z,1024.15
2022-11-25T00:24:52.816Z,1024.02
2022-11-25T00:27:19.833Z,1023.97
2022-11-25T00:29:46.562Z,1023.94
2022-11-25T00:32:13.435Z,1023.90
2022-11-25T00:34:40.182Z,1023.89
2022-11-25T00:37:11.504Z,1023.96
2022-11-25T00:39:38.256Z,1024.03
2022-11-25T00:42:05.110Z,1024.25
2022-11-25T00:44:32.171Z,1024.17
2022-11-25T00:47:00.505Z,1024.25
2022-11-25T00:49:27.992Z,1024.29
2022-11-25T00:51:55.321Z,1024.40
2022-11-25T00:54:23.605Z,1024.27
2022-11-25T00:56:50.493Z,1024.35
2022-11-25T00:59:17.997Z,1024.37
2022-11-25T01:01:44.923Z,1024.43
2022-11-25T01:04:12.193Z,1024.55
2022-11-25T01:06:39.117Z,1024.57
2022-11-25T01:09:07.615Z,1024.43
2022-11-25T01:11:35.830Z,1024.51
2022-11-25T01:14:02.718Z,1024.51
2022-11-25T01:16:30.431Z,1024.56
2022-11-25T01:19:00.124Z,1024.54
2022-11-25T01:21:29.938Z,1024.50
2022-11-25T01:23:59.605Z,1024.58
2022-11-25T01:26:26.521Z,1024.55
2022-11-25T01:28:56.765Z,1024.48
2022-11-25T01:31:25.821Z,1024.48
2022-11-25T01:33:54.783Z,1024.59
2022-11-25T01:36:24.288Z,1024.68
2022-11-25T01:38:53.701Z,1024.84
2022-11-25T01:41:22.046Z,1024.93
2022-11-25T01:44:12.929Z,1024.99
2022-11-25T01:46:47.950Z,1024.98
2022-11-25T01:49:17.675Z,1025.05
2022-11-25T01:51:48.482Z,1025.07
2022-11-25T01:54:19.563Z,1025.00
2022-11-25T01:56:51.445Z,1025.08
2022-11-25T01:59:20.106Z,1025.12
2022-11-25T02:01:46.908Z,1025.12
2022-11-25T02:04:17.393Z,1025.10
2022-11-25T02:06:50.760Z,1025.10
2022-11-25T02:09:18.837Z,1025.06
2022-11-25T02:11:46.282Z,1024.97
2022-11-25T02:14:14.694Z,1024.99
2022-11-25T02:16:43.138Z,1025.00
2022-11-25T02:19:25.798Z,1024.93
2022-11-25T02:21:56.898Z,1024.89
2022-11-25T02:24:30.203Z,1024.85
2022-11-25T02:26:58.762Z,1024.92
2022-11-25T02:29:26.246Z,1024.88
2022-11-25T02:31:53.199Z,1024.94
2022-11-25T02:34:20.018Z,1024.87
2022-11-25T02:36:48.412Z,1024.93
2022-11-25T02:39:15.245Z,1024.99
2022-11-25T02:41:46.560Z,1025.09
2022-11-25T02:44:15.046Z,1025.02
2022-11-25T02:46:42.928Z,1025.08
2022-11-25T02:49:10.547Z,1025.17
2022-11-25T02:51:39.909Z,1025.03
2022-11-25T02:54:07.227Z,1024.92
2022-11-25T02:56:36.529Z,1024.96
2022-11-25T02:59:03.864Z,1024.97
2022-11-25T03:01:33.462Z,1025.07
2022-11-25T03:04:00.344Z,1025.10
2022-11-25T03:06:27.869Z,1025.00
2022-11-25T03:08:54.635Z,1024.95
2022-11-25T03:11:21.542Z,1025.02
2022-11-25T03:13:49.452Z,1025.01
2022-11-25T03:16:16.258Z,1025.07
2022-11-25T03:18:44.741Z,1025.04
2022-11-25T03:21:11.513Z,1025.10
2022-11-25T03:23:40.486Z,1025.11
2022-11-25T03:26:07.415Z,1025.14
2022-11-25T03:28:34.374Z,1025.06
2022-11-25T03:31:01.134Z,1025.09
2022-11-25T03:33:28.156Z,1025.08
2022-11-25T03:35:56.271Z,1025.04
2022-11-25T03:38:24.285Z,1025.07
2022-11-25T03:40:51.019Z,1025.15
2022-11-25T03:43:17.965Z,1025.17
2022-11-25T03:45:47.971Z,1025.14
2022-11-25T03:48:14.886Z,1025.18
2022-11-25T03:50:41.749Z,1025.11
2022-11-25T03:53:10.171Z,1025.19
2022-11-25T03:55:37.028Z,1025.24
2022-11-25T03:58:03.846Z,1025.37
2022-11-25T04:00:30.770Z,1025.34
2022-11-25T04:02:57.799Z,1025.32
2022-11-25T04:05:25.709Z,1025.36
2022-11-25T04:07:57.704Z,1025.34
2022-11-25T04:10:26.439Z,1025.39
2022-11-25T04:12:53.686Z,1025.30
2022-11-25T04:15:20.625Z,1025.30
2022-11-25T04:17:47.439Z,1025.37
2022-11-25T04:20:14.678Z,1025.18
2022-11-25T04:22:41.524Z,1025.38
2022-11-25T04:25:09.223Z,1025.40
2022-11-25T04:27:37.362Z,1025.25
2022-11-25T04:30:06.083Z,1025.16
2022-11-25T04:32:32.847Z,1025.27
2022-11-25T04:34:59.858Z,1025.13
2022-11-25T04:37:26.612Z,1025.08
2022-11-25T04:39:53.366Z,1025.11
2022-11-25T04:42:20.378Z,1025.12
2022-11-25T04:45:07.285Z,1025.12
2022-11-25T04:47:35.990Z,1025.16
2022-11-25T04:50:03.450Z,1025.24
2022-11-25T04:52:30.210Z,1025.24
2022-11-25T04:54:56.946Z,1025.21
2022-11-25T04:57:23.856Z,1025.16
2022-11-25T04:59:52.073Z,1025.34
2022-11-25T05:02:21.589Z,1025.40
2022-11-25T05:04:49.700Z,1025.44
2022-11-25T05:07:19.160Z,1025.37
2022-11-25T05:09:46.221Z,1025.49
2022-11-25T05:12:18.216Z,1025.46
2022-11-25T05:14:45.406Z,1025.56
2022-11-25T05:17:17.126Z,1025.51
2022-11-25T05:19:43.981Z,1025.62
2022-11-25T05:22:11.834Z,1025.56
2022-11-25T05:24:39.078Z,1025.57
2022-11-25T05:27:06.277Z,1025.70
2022-11-25T05:29:34.293Z,1025.68
2022-11-25T05:32:01.218Z,1025.69
2022-11-25T05:34:29.508Z,1025.74
2022-11-25T05:36:58.021Z,1025.71
2022-11-25T05:39:25.027Z,1025.76
2022-11-25T05:41:51.801Z,1025.81
2022-11-25T05:44:22.953Z,1025.79
2022-11-25T05:46:50.153Z,1025.77
2022-11-25T05:49:18.055Z,1025.71
2022-11-25T05:51:46.755Z,1025.70
2022-11-25T05:54:14.701Z,1025.75
2022-11-25T05:56:41.601Z,1025.69
2022-11-25T05:59:09.793Z,1025.72
2022-11-25T06:01:36.557Z,1025.62
2022-11-25T06:04:06.361Z,1025.68
2022-11-25T06:06:33.231Z,1025.63
2022-11-25T06:09:01.733Z,1025.69
2022-11-25T06:11:28.624Z,1025.68
2022-11-25T06:13:57.215Z,1025.73
2022-11-25T06:16:25.429Z,1025.76
2022-11-25T06:18:52.929Z,1025.81
2022-11-25T06:21:20.307Z,1025.74
2022-11-25T06:23:47.404Z,1025.67
2022-11-25T06:26:17.147Z,1025.78
2022-11-25T06:28:44.269Z,1025.68
2022-11-25T06:31:14.041Z,1025.71
2022-11-25T06:33:41.503Z,1025.83
2022-11-25T06:36:10.539Z,1025.83
2022-11-25T06:38:37.316Z,1025.73
2022-11-25T06:41:06.061Z,1025.80
2022-11-25T06:43:34.316Z,1025.78
2022-11-25T06:46:05.739Z,1025.80
2022-11-25T06:48:33.042Z,1025.80
2022-11-25T06:51:02.558Z,1025.77
2022-11-25T06:53:30.603Z,1025.82
2022-11-25T06:56:11.283Z,1026.05
2022-11-25T06:58:40.313Z,1026.07
2022-11-25T07:01:13.007Z,1025.98
2022-11-25T07:03:40.609Z,1025.91
2022-11-25T07:06:08.724Z,1025.94
2022-11-25T07:08:36.824Z,1025.90
2022-11-25T07:11:05.774Z,1025.96
2022-11-25T07:13:34.235Z,1025.99
2022-11-25T07:16:05.354Z,1026.06
2022-11-25T07:18:36.200Z,1026.13
2022-11-25T07:21:06.239Z,1026.04
2022-11-25T07:23:33.994Z,1026.04
2022-11-25T07:26:07.159Z,1026.11
2022-11-25T07:28:36.520Z,1026.10
2022-11-25T07:34:02.164Z,1026.08
2022-11-25T07:36:30.586Z,1026.15
2022-11-25T07:39:00.134Z,1026.11
2022-11-25T07:41:28.611Z,1026.13
2022-11-25T07:43:58.467Z,1026.03
2022-11-25T07:46:29.354Z,1026.05
2022-11-25T07:49:01.794Z,1025.93
2022-11-25T07:51:31.810Z,1025.94
2022-11-25T07:54:00.575Z,1025.85
2022-11-25T07:56:29.817Z,1025.79
2022-11-25T07:58:57.782Z,1025.71
2022-11-25T08:01:27.000Z,1025.70
2022-11-25T08:03:56.025Z,1025.56
2022-11-25T08:06:26.867Z,1025.52
2022-11-25T08:08:54.663Z,1025.40
2022-11-25T08:11:24.958Z,1025.41
2022-11-25T08:13:54.283Z,1025.29
2022-11-25T08:16:23.535Z,1025.24
2022-11-25T08:18:52.372Z,1025.14
2022-11-25T08:21:20.573Z,1025.21
2022-11-25T08:23:49.004Z,1025.11
2022-11-25T08:26:18.863Z,1025.00
2022-11-25T08:28:47.451Z,1024.88
2022-11-25T08:31:18.326Z,1024.81
2022-11-25T08:33:48.752Z,1024.72
2022-11-25T08:36:19.528Z,1024.60
2022-11-25T08:38:48.508Z,1024.58
2022-11-25T08:41:18.356Z,1024.54
2022-11-25T08:43:45.657Z,1024.55
2022-11-25T08:46:15.795Z,1024.49
2022-11-25T08:48:42.938Z,1024.49
2022-11-25T08:51:14.622Z,1024.45
2022-11-25T08:53:43.686Z,1024.52
2022-11-25T08:56:11.213Z,1024.58
2022-11-25T08:58:39.006Z,1024.53
2022-11-25T09:01:07.220Z,1024.47
2022-11-25T09:03:36.177Z,1024.27
2022-11-25T09:06:04.037Z,1024.14
2022-11-25T09:08:32.578Z,1024.04
2022-11-25T09:11:01.662Z,1024.24
2022-11-25T09:13:29.764Z,1024.12
2022-11-25T09:15:58.265Z,1024.06
2022-11-25T09:18:25.599Z,1023.87
2022-11-25T09:20:54.490Z,1023.84
2022-11-25T09:23:21.542Z,1023.75
2022-11-25T09:25:51.585Z,1023.64
2022-11-25T09:28:21.204Z,1023.65
2022-11-25T09:30:49.872Z,1023.71
2022-11-25T09:33:35.546Z,1023.65
2022-11-25T09:36:05.413Z,1023.68
2022-11-25T09:38:34.886Z,1023.67
2022-11-25T09:41:08.432Z,1023.75
2022-11-25T09:43:51.771Z,1023.80
2022-11-25T09:46:35.448Z,1023.84
2022-11-25T09:49:11.866Z,1023.88
2022-11-25T09:51:55.402Z,1023.97
2022-11-25T09:54:29.847Z,1023.94
2022-11-25T09:57:01.821Z,1024.01
2022-11-25T09:59:39.132Z,1023.95
2022-11-25T10:02:27.317Z,1024.09
2022-11-25T10:05:03.270Z,1024.06
2022-11-25T10:07:36.835Z,1024.01
2022-11-25T10:10:07.131Z,1023.84
2022-11-25T10:12:38.858Z,1023.85
2022-11-25T10:15:16.519Z,1023.68
2022-11-25T10:17:47.112Z,1023.69
2022-11-25T10:20:20.249Z,1023.64
2022-11-25T10:22:50.388Z,1023.68
2022-11-25T10:25:22.101Z,1023.63
2022-11-25T10:27:53.033Z,1023.62
2022-11-25T10:30:23.222Z,1023.69
2022-11-25T10:32:57.880Z,1023.68
2022-11-25T10:35:34.054Z,1023.61
2022-11-25T10:38:03.581Z,1023.63
2022-11-25T10:40:33.479Z,1023.55
2022-11-25T10:43:02.792Z,1023.56
2022-11-25T10:45:41.005Z,1023.51
2022-11-25T10:48:19.630Z,1023.58
2022-11-25T10:51:03.073Z,1023.42
2022-11-25T10:53:30.055Z,1023.43
2022-11-25T10:56:00.446Z,1023.33
2022-11-25T10:58:31.295Z,1023.29
2022-11-25T11:01:21.024Z,1023.19
2022-11-25T11:03:53.334Z,1023.10
2022-11-25T11:06:32.808Z,1023.16
2022-11-25T11:08:59.833Z,1022.94
2022-11-25T11:11:28.174Z,1022.91
2022-11-25T11:14:12.393Z,1022.75
2022-11-25T11:16:42.526Z,1022.74
2022-11-25T11:19:21.915Z,1022.63
2022-11-25T11:21:51.314Z,1022.67
2022-11-25T11:24:27.271Z,1022.64
2022-11-25T11:27:06.797Z,1022.65
2022-11-25T11:29:34.094Z,1022.71
2022-11-25T11:32:04.832Z,1022.70
2022-11-25T11:34:53.164Z,1022.57
2022-11-25T11:37:34.040Z,1022.45
2022-11-25T11:40:25.067Z,1022.39
2022-11-25T11:43:02.719Z,1022.40
2022-11-25T11:45:42.513Z,1022.34
2022-11-25T11:48:21.946Z,1022.34
2022-11-25T11:50:51.362Z,1022.29
2022-11-25T11:53:25.782Z,1022.29
2022-11-25T11:56:32.992Z,1022.27
2022-11-25T11:58:59.905Z,1022.28
2022-11-25T12:01:41.983Z,1022.23
2022-11-25T12:04:17.907Z,1022.18
2022-11-25T12:06:54.384Z,1022.17
2022-11-25T12:09:26.044Z,1022.10
2022-11-25T12:12:00.547Z,1022.05
2022-11-25T12:14:39.358Z,1022.11
2022-11-25T12:17:14.721Z,1022.16
2022-11-25T12:19:55.001Z,1022.31
2022-11-25T12:22:28.613Z,1022.43
2022-11-25T12:25:04.364Z,1022.41
2022-11-25T12:27:35.391Z,1022.46
2022-11-25T12:30:06.303Z,1022.46
2022-11-25T12:32:52.029Z,1022.48
2022-11-25T12:35:31.247Z,1022.57
2022-11-25T12:38:05.263Z,1022.49
2022-11-25T12:40:35.591Z,1022.52
2022-11-25T12:43:15.219Z,1022.58
2022-11-25T12:45:47.012Z,1022.65
2022-11-25T12:48:18.575Z,1022.69
2022-11-25T12:51:03.063Z,1022.68
2022-11-25T12:53:38.780Z,1022.65
2022-11-25T12:56:14.335Z,1022.64
2022-11-25T12:58:54.020Z,1022.66
2022-11-25T13:01:46.749Z,1022.47
2022-11-25T13:04:50.692Z,1022.53
2022-11-25T13:07:34.306Z,1022.57
2022-11-25T13:10:37.966Z,1022.51
2022-11-25T13:13:26.150Z,1022.58
2022-11-25T13:15:55.206Z,1022.56
2022-11-25T13:18:29.078Z,1022.57
2022-11-25T13:20:57.272Z,1022.56
2022-11-25T13:23:32.156Z,1022.63
2022-11-25T13:26:38.222Z,1022.55
2022-11-25T13:30:01.554Z,1022.48
2022-11-25T13:32:36.214Z,1022.54
2022-11-25T13:35:51.545Z,1022.56
2022-11-25T13:38:57.137Z,1022.49
2022-11-25T13:41:34.128Z,1022.39
2022-11-25T13:44:06.776Z,1022.47
2022-11-25T13:46:40.527Z,1022.44
2022-11-25T13:49:28.639Z,1022.51
2022-11-25T13:52:00.368Z,1022.54
2022-11-25T13:54:37.700Z,1022.64
2022-11-25T13:57:26.379Z,1022.66
2022-11-25T13:59:57.554Z,1022.74
2022-11-25T14:02:41.080Z,1022.71
2022-11-25T14:05:27.002Z,1022.56
2022-11-25T14:08:11.175Z,1022.58
2022-11-25T14:10:51.676Z,1022.41
2022-11-25T14:13:46.202Z,1022.34
2022-11-25T14:16:36.286Z,1022.27
2022-11-25T14:22:32.555Z,1022.49
2022-11-25T14:25:16.740Z,1022.62
2022-11-25T14:27:48.933Z,1022.70
2022-11-25T14:30:17.685Z,1022.76
2022-11-25T14:32:55.847Z,1022.84
2022-11-25T14:35:30.533Z,1022.89
2022-11-25T14:38:03.506Z,1022.95
2022-11-25T14:40:37.569Z,1023.02
2022-11-25T14:43:18.096Z,1023.06
2022-11-25T14:45:46.412Z,1023.08
2022-11-25T14:48:14.904Z,1023.07
2022-11-25T14:50:54.667Z,1023.07
2022-11-25T14:53:22.712Z,1023.18
2022-11-25T14:55:50.372Z,1023.19
2022-11-25T14:58:20.853Z,1023.22
2022-11-25T15:00:53.825Z,1023.32
2022-11-25T15:03:20.953Z,1023.42
2022-11-25T15:05:56.551Z,1023.46
2022-11-25T15:08:25.128Z,1023.58
2022-11-25T15:10:58.238Z,1023.74
2022-11-25T15:13:33.600Z,1023.85
2022-11-25T15:16:08.689Z,1024.00
2022-11-25T15:18:36.684Z,1023.89
2022-11-25T15:21:06.129Z,1023.97
2022-11-25T15:23:37.462Z,1023.97
2022-11-25T15:26:15.717Z,1024.15
2022-11-25T15:28:46.786Z,1024.24
2022-11-25T15:31:20.677Z,1024.41
2022-11-25T15:33:54.552Z,1024.48
2022-11-25T15:36:23.811Z,1024.56
2022-11-25T15:38:51.462Z,1024.63
2022-11-25T15:41:32.952Z,1024.55
2022-11-25T15:44:03.851Z,1024.58
2022-11-25T15:46:35.900Z,1024.63
2022-11-25T15:49:06.152Z,1024.67
2022-11-25T15:51:38.978Z,1024.73
2022-11-25T15:54:17.280Z,1024.81
2022-11-25T15:56:46.643Z,1024.88
2022-11-25T15:59:46.289Z,1024.89
2022-11-25T16:02:38.142Z,1024.98
2022-11-25T16:05:25.035Z,1025.04
2022-11-25T16:08:20.585Z,1025.10
2022-11-25T16:10:58.263Z,1025.12
2022-11-25T16:13:35.894Z,1025.13
2022-11-25T16:16:15.429Z,1025.08
2022-11-25T16:18:50.790Z,1025.11
2022-11-25T16:21:20.446Z,1025.18
2022-11-25T16:23:51.763Z,1025.30
2022-11-25T16:26:24.949Z,1025.36
2022-11-25T16:28:55.920Z,1025.50
2022-11-25T16:31:25.042Z,1025.50
2022-11-25T16:33:55.127Z,1025.54
2022-11-25T16:36:22.192Z,1025.48
2022-11-25T16:38:52.451Z,1025.52
2022-11-25T16:41:22.286Z,1025.50
2022-11-25T16:43:49.475Z,1025.57
2022-11-25T16:46:18.853Z,1025.61
2022-11-25T16:48:47.645Z,1025.62
2022-11-25T16:51:16.767Z,1025.72
2022-11-25T16:53:44.523Z,1025.67
2022-11-25T16:56:15.023Z,1025.65
2022-11-25T16:58:43.126Z,1025.71
2022-11-25T17:01:34.819Z,1025.67
2022-11-25T17:04:03.163Z,1025.80
2022-11-25T17:06:30.168Z,1025.86
2022-11-25T17:08:57.281Z,1025.75
2022-11-25T17:11:28.311Z,1025.80
2022-11-25T17:13:58.446Z,1025.85
2022-11-25T17:16:33.148Z,1025.89
2022-11-25T17:19:00.761Z,1025.95
2022-11-25T17:21:29.412Z,1026.01
2022-11-25T17:24:16.387Z,1026.03
2022-11-25T17:26:46.967Z,1026.04
2022-11-25T17:29:16.882Z,1026.00
2022-11-25T17:31:51.305Z,1026.16
2022-11-25T17:34:21.950Z,1026.08
2022-11-25T17:36:50.395Z,1026.27
2022-11-25T17:39:17.196Z,1026.28
2022-11-25T17:41:46.068Z,1026.29
2022-11-25T17:44:24.217Z,1026.33
2022-11-25T17:46:51.229Z,1026.45
2022-11-25T17:49:18.319Z,1026.47
2022-11-25T17:51:45.777Z,1026.54
2022-11-25T17:54:14.891Z,1026.63
2022-11-25T17:56:46.486Z,1026.64
2022-11-25T17:59:23.487Z,1026.52
2022-11-25T18:01:50.451Z,1026.50
2022-11-25T18:04:21.481Z,1026.60
2022-11-25T18:06:48.471Z,1026.60
2022-11-25T18:09:18.447Z,1026.64
2022-11-25T18:11:48.488Z,1026.68
2022-11-25T18:14:25.395Z,1026.70
2022-11-25T18:16:53.319Z,1026.66
2022-11-25T18:19:21.164Z,1026.68
2022-11-25T18:21:47.983Z,1026.75
2022-11-25T18:24:14.800Z,1026.87
2022-11-25T18:26:45.118Z,1026.90
2022-11-25T18:29:17.384Z,1026.99
2022-11-25T18:31:44.241Z,1026.96
2022-11-25T18:34:16.554Z,1027.04
2022-11-25T18:36:45.280Z,1026.92
2022-11-25T18:39:12.515Z,1027.04
2022-11-25T18:41:42.001Z,1026.99
2022-11-25T18:44:25.645Z,1027.10
2022-11-25T18:46:53.782Z,1027.14
2022-11-25T18:49:21.312Z,1027.11
2022-11-25T18:51:48.154Z,1027.19
2022-11-25T18:54:15.210Z,1027.19
2022-11-25T18:56:43.301Z,1027.20
2022-11-25T18:59:17.134Z,1027.23
2022-11-25T19:01:49.626Z,1027.22
2022-11-25T19:04:16.883Z,1027.22
2022-11-25T19:06:44.078Z,1027.30
2022-11-25T19:09:11.424Z,1027.25
2022-11-25T19:11:41.764Z,1027.29
2022-11-25T19:14:13.322Z,1027.29
2022-11-25T19:16:43.199Z,1027.30
2022-11-25T19:19:14.260Z,1027.37
2022-11-25T19:21:41.716Z,1027.26
2022-11-25T19:24:12.389Z,1027.34
2022-11-25T19:26:44.096Z,1027.43
2022-11-25T19:29:17.531Z,1027.42
2022-11-25T19:31:47.180Z,1027.53
2022-11-25T19:34:24.662Z,1027.55
2022-11-25T19:36:51.860Z,1027.67
2022-11-25T19:39:18.813Z,1027.74
2022-11-25T19:41:47.227Z,1027.65
2022-11-25T19:44:14.240Z,1027.67
2022-11-25T19:47:13.730Z,1027.73
2022-11-25T19:49:33.413Z,1027.73
2022-11-25T19:52:00.361Z,1027.74
2022-11-25T19:54:27.367Z,1027.66
2022-11-25T19:56:54.320Z,1027.60
2022-11-25T19:59:21.453Z,1027.62
2022-11-25T20:01:51.041Z,1027.70
2022-11-25T20:04:20.964Z,1027.65
2022-11-25T20:06:48.794Z,1027.71
2022-11-25T20:09:15.821Z,1027.70
2022-11-25T20:11:43.250Z,1027.81
2022-11-25T20:14:10.514Z,1027.67
2022-11-25T20:16:40.963Z,1027.73
2022-11-25T20:19:16.271Z,1027.72
2022-11-25T20:21:43.461Z,1027.75
2022-11-25T20:24:14.356Z,1027.77
2022-11-25T20:26:42.548Z,1027.83
2022-11-25T20:29:14.969Z,1027.80
2022-11-25T20:31:41.870Z,1027.82
2022-11-25T20:34:12.363Z,1027.82
2022-11-25T20:36:40.929Z,1027.85
2022-11-25T20:39:17.322Z,1027.77
2022-11-25T20:41:48.196Z,1027.83
2022-11-25T20:44:15.039Z,1027.98
2022-11-25T20:46:42.025Z,1027.92
2022-11-25T20:49:20.525Z,1027.99
2022-11-25T20:51:47.575Z,1028.06
2022-11-25T20:54:14.535Z,1028.27
2022-11-25T20:56:41.563Z,1028.29
2022-11-25T20:59:19.294Z,1028.40
2022-11-25T21:01:46.359Z,1028.28
2022-11-25T21:04:14.675Z,1028.27
2022-11-25T21:06:42.245Z,1028.23
2022-11-25T21:09:16.638Z,1028.29
2022-11-25T21:11:44.672Z,1028.33
2022-11-25T21:14:14.573Z,1028.47
2022-11-25T21:16:41.701Z,1028.53
2022-11-25T21:19:08.580Z,1028.60
2022-11-25T21:21:39.566Z,1028.57
2022-11-25T21:24:16.663Z,1028.62
2022-11-25T21:26:43.683Z,1028.47
2022-11-25T21:29:14.825Z,1028.54
2022-11-25T21:31:41.857Z,1028.47
2022-11-25T21:34:12.080Z,1028.53
2022-11-25T21:36:41.530Z,1028.55
2022-11-25T21:39:17.051Z,1028.51
2022-11-25T21:41:44.020Z,1028.49
2022-11-25T21:44:20.873Z,1028.56
2022-11-25T21:46:47.730Z,1028.51
2022-11-25T21:49:14.583Z,1028.42
2022-11-25T21:51:42.955Z,1028.43
2022-11-25T21:54:10.238Z,1028.38
2022-11-25T21:56:37.703Z,1028.31
2022-11-25T21:59:07.627Z,1028.34
2022-11-25T22:01:34.465Z,1028.42
2022-11-25T22:04:02.504Z,1028.36
2022-11-25T22:06:30.376Z,1028.35
2022-11-25T22:08:58.811Z,1028.36
2022-11-25T22:11:30.629Z,1028.45
2022-11-25T22:13:59.350Z,1028.40
2022-11-25T22:16:30.137Z,1028.52
2022-11-25T22:18:58.059Z,1028.43
2022-11-25T22:21:24.991Z,1028.45
2022-11-25T22:23:52.033Z,1028.45
2022-11-25T22:26:27.263Z,1028.50
2022-11-25T22:28:54.485Z,1028.60
2022-11-25T22:31:23.226Z,1028.64
2022-11-25T22:33:50.571Z,1028.60
2022-11-25T22:36:30.145Z,1028.68
2022-11-25T22:38:58.961Z,1028.66
2022-11-25T22:41:27.186Z,1028.55
2022-11-25T22:43:55.333Z,1028.53
2022-11-25T22:46:22.205Z,1028.54
2022-11-25T22:48:49.428Z,1028.51
2022-11-25T22:51:18.379Z,1028.60
2022-11-25T22:53:45.507Z,1028.61
2022-11-25T22:56:17.556Z,1028.56
2022-11-25T22:58:46.492Z,1028.60
2022-11-25T23:01:16.689Z,1028.57
2022-11-25T23:03:44.605Z,1028.51
2022-11-25T23:06:13.070Z,1028.68
2022-11-25T23:08:40.267Z,1028.70
2022-11-25T23:11:14.662Z,1028.76
2022-11-25T23:13:41.165Z,1028.70
2022-11-25T23:16:12.268Z,1028.73
2022-11-25T23:18:40.845Z,1028.87
2022-11-25T23:21:16.593Z,1028.86
2022-11-25T23:23:43.434Z,1028.79
2022-11-25T23:26:11.549Z,1028.74
2022-11-25T23:28:38.483Z,1028.80
2022-11-25T23:31:06.085Z,1028.73
2022-11-25T23:33:37.059Z,1028.74
2022-11-25T23:36:09.251Z,1028.83
2022-11-25T23:38:41.491Z,1028.97
2022-11-25T23:41:14.510Z,1028.87
2022-11-25T23:43:41.326Z,1028.86
2022-11-25T23:46:11.201Z,1028.97
2022-11-25T23:48:39.984Z,1028.97
2022-11-25T23:51:08.353Z,1028.98
2022-11-25T23:53:39.165Z,1029.00
2022-11-25T23:56:06.845Z,1029.09
2022-11-25T23:58:33.822Z,1029.11
